Главная страница
METAR-TAF:

METAR-TAF

Аэропорты :

Florø, Норвегия

широта: 61-35N, долгота: 005-02E, высота над уровнем моря: 0 м

Текущие метеонаблюдения

Эта сводка был подготовлена 37 минут назад, в 14:20 UTC
Ветер 15 Узел от северо-западный
Температура 17°C
Влажность 68%
Давление 1025 hPa
Видимость 10 км и более
небольшая облачность на высоте 1600 фута

METAR: ENFL 091420Z 32015KT 9999 FEW016 17/11 Q1025

Время: 16:57 (14:57 UTC)

Прогноз

Эта сводка был подготовлена 57 минут назад, в 14:00 UTC
Прогноз действительный с 09-го 15 UTC до 09-го 24 UTC
Ветер 15 Узел от северо-западный
Видимость 10 км и более
небольшая облачность на высоте 2000 фута
изменения
С 09-го 17 UTC до 09-го 19 UTC
Ветер 5 Узел от северный

TAF: ENFL 091400Z 0915/0924 32015KT 9999 FEW020 BECMG 0917/0919 35005KT

Метеонаблюдения и прогнозы для более 4000 аэропортов (сводки METAR и TAF).

Имеющиеся станции представлены на карте желтыми и красными точками.

Чтобы увидеть название станции, наведите на нее мышь.

Затем щелкните, чтобы увидеть метеонаблюдения и метеопрогнозы.

Управление картой: чтобы увеличить масштаб, щелкните зеленые кнопки с черным крестиком; чтобы уменьшить масштаб, щелкните зеленую кнопку с тире; для просмотра соседних карт щелкайте зеленые стрелки.


METAR-TAF: